Time;durP1;ratioP1;P1;durP2;ratioP2;P2;SDS_P1;SDS_P2;PMS_P1;PMS_P2;Temp;Humidity;BMP_temperature;BMP_pressure;BME280_temperature;BME280_humidity;BME280_pressure;Samples;Min_cycle;Max_cycle;Signal;HPM_P1;HPM_P2
2021/06/20 00:00:38;;;;;;;8.87;7.40;;;;;;;21.69;76.29;101164.63;5107650;28;20166;-76
2021/06/20 00:03:04;;;;;;;9.43;7.23;;;;;;;21.75;76.22;101162.63;5090818;28;20224;-76
2021/06/20 00:05:51;;;;;;;9.53;7.70;;;;;;;21.64;76.08;101139.91;5107565;28;20175;-76
2021/06/20 00:08:17;;;;;;;8.63;7.73;;;;;;;21.75;76.12;101165.44;5107386;28;20202;-76
2021/06/20 00:10:43;;;;;;;9.97;7.67;;;;;;;21.68;76.05;101163.00;5107483;28;20164;-76
2021/06/20 00:13:08;;;;;;;9.53;6.87;;;;;;;21.69;75.94;101165.38;5073791;28;20179;-76
2021/06/20 00:15:35;;;;;;;12.03;7.83;;;;;;;21.67;76.05;101156.63;5107369;28;20167;-75
2021/06/20 00:18:00;;;;;;;9.10;7.73;;;;;;;21.69;76.11;101162.56;5090548;28;20206;-76
2021/06/20 00:20:28;;;;;;;8.33;7.53;;;;;;;21.65;76.14;101155.56;5090050;28;20175;-75
2021/06/20 00:22:53;;;;;;;10.23;7.40;;;;;;;21.71;75.95;101162.84;5106889;28;20241;-75
2021/06/20 00:25:19;;;;;;;9.17;7.23;;;;;;;21.67;75.92;101147.38;5107359;28;20165;-76
2021/06/20 00:27:45;;;;;;;11.10;7.70;;;;;;;21.67;75.94;101150.19;5107055;28;20175;-76
2021/06/20 00:30:13;;;;;;;8.27;7.37;;;;;;;21.65;75.82;101149.91;5090288;28;20192;-76
2021/06/20 00:32:38;;;;;;;9.93;7.53;;;;;;;21.58;75.83;101139.84;5090343;28;20167;-76
2021/06/20 00:35:05;;;;;;;8.73;7.47;;;;;;;21.68;76.00;101158.19;5090331;28;20174;-77
2021/06/20 00:37:31;;;;;;;7.93;7.00;;;;;;;21.66;75.79;101160.72;5107249;28;20167;-76
2021/06/20 00:39:56;;;;;;;8.63;7.40;;;;;;;21.54;75.69;101139.28;5090135;28;20197;-76
2021/06/20 00:42:22;;;;;;;10.50;7.00;;;;;;;21.55;75.78;101143.63;5089862;28;20188;-76
2021/06/20 00:44:48;;;;;;;8.07;6.50;;;;;;;21.54;75.65;101147.72;5088946;28;20634;-76
2021/06/20 00:47:15;;;;;;;12.33;6.80;;;;;;;21.54;75.63;101150.56;5106945;28;20163;-76
2021/06/20 00:49:40;;;;;;;8.43;6.43;;;;;;;21.50;75.60;101149.22;5089874;28;20181;-76
2021/06/20 00:52:06;;;;;;;7.37;6.40;;;;;;;21.41;75.63;101138.88;5072925;28;20175;-77
2021/06/20 00:54:31;;;;;;;9.57;6.50;;;;;;;21.47;75.38;101144.56;5107774;28;20159;-76
2021/06/20 00:56:57;;;;;;;9.83;7.10;;;;;;;21.41;75.42;101149.38;5107635;28;20575;-76
2021/06/20 00:59:23;;;;;;;9.37;7.03;;;;;;;21.46;75.68;101154.31;5072821;28;20171;-77
2021/06/20 01:01:48;;;;;;;8.43;7.27;;;;;;;21.36;75.78;101139.59;5106683;28;20201;-76
2021/06/20 01:04:14;;;;;;;9.80;7.40;;;;;;;21.42;75.94;101146.06;5089246;28;20170;-76
2021/06/20 01:06:39;;;;;;;9.43;7.47;;;;;;;21.51;76.00;101153.59;5089443;28;20675;-76
2021/06/20 01:09:05;;;;;;;11.93;7.40;;;;;;;21.53;76.05;101156.69;5089466;28;20168;-76
2021/06/20 01:11:30;;;;;;;10.13;7.30;;;;;;;21.48;75.91;101149.72;5089395;28;20171;-76
2021/06/20 01:13:56;;;;;;;8.00;7.00;;;;;;;21.58;75.94;101162.41;5106203;28;20173;-76
2021/06/20 01:16:22;;;;;;;9.00;7.10;;;;;;;21.57;75.94;101169.31;5089349;28;20565;-76
2021/06/20 01:18:47;;;;;;;9.33;6.43;;;;;;;21.51;75.85;101151.56;5089310;28;20186;-76
2021/06/20 01:21:13;;;;;;;9.67;5.70;;;;;;;21.57;75.49;101169.31;5106065;28;20226;-76
2021/06/20 01:23:38;;;;;;;10.87;5.33;;;;;;;21.46;75.32;101168.41;5089127;28;20186;-76
2021/06/20 01:26:04;;;;;;;7.27;5.13;;;;;;;21.41;75.21;101161.44;5106020;28;20167;-75
2021/06/20 01:28:39;;;;;;;6.77;5.17;;;;;;;21.46;75.21;101168.41;5089048;28;20167;-76
2021/06/20 01:31:06;;;;;;;6.07;5.57;;;;;;;21.44;75.36;101159.69;5090537;28;20155;-76
2021/06/20 01:33:31;;;;;;;6.43;5.83;;;;;;;21.37;75.43;101134.69;5089187;28;20167;-76
2021/06/20 01:35:57;;;;;;;6.60;5.37;;;;;;;21.52;75.45;101166.41;5089053;28;20167;-77
2021/06/20 01:40:11;;;;;;;6.90;6.27;;;;;;;21.54;75.58;101163.91;5140604;27;20517;-76
2021/06/20 01:42:37;;;;;;;7.07;6.30;;;;;;;21.58;75.88;101161.63;5123096;28;20220;-77
2021/06/20 01:45:05;;;;;;;8.57;6.13;;;;;;;21.52;75.85;101136.19;5089301;28;20261;-76
2021/06/20 01:47:30;;;;;;;7.53;6.40;;;;;;;21.60;75.83;101137.28;5106412;28;20167;-76
2021/06/20 01:49:58;;;;;;;6.93;6.33;;;;;;;21.62;75.71;101140.41;5106193;28;20151;-77
2021/06/20 01:52:25;;;;;;;8.80;6.17;;;;;;;21.63;75.83;101141.94;5089030;28;20181;-77
2021/06/20 01:54:51;;;;;;;7.23;6.23;;;;;;;21.66;75.49;101146.59;5122979;28;20174;-78
2021/06/20 01:57:27;;;;;;;8.47;6.37;;;;;;;21.66;74.99;101140.97;5105568;28;20206;-76
2021/06/20 01:59:53;;;;;;;7.53;6.33;;;;;;;21.56;75.00;101135.97;5105591;28;20234;-76
2021/06/20 02:02:19;;;;;;;9.17;6.30;;;;;;;21.56;74.82;101144.44;5106255;28;20175;-76
2021/06/20 02:04:45;;;;;;;7.23;6.23;;;;;;;21.45;75.03;101141.47;5105672;28;20188;-77
2021/06/20 02:07:11;;;;;;;8.30;6.40;;;;;;;21.46;75.10;101138.16;5105792;28;20653;-76
2021/06/20 02:09:37;;;;;;;9.47;7.30;;;;;;;21.34;74.72;101125.19;5088699;28;20159;-76
2021/06/20 02:12:13;;;;;;;12.20;6.97;;;;;;;21.41;75.11;101140.91;5105688;28;20237;-77
2021/06/20 02:16:14;;;;;;;10.10;6.90;;;;;;;21.31;74.90;101136.69;5140628;27;20521;-76
2021/06/20 02:18:40;;;;;;;10.90;7.10;;;;;;;21.34;75.19;101149.81;5106178;28;20216;-76
2021/06/20 02:21:06;;;;;;;10.23;6.40;;;;;;;21.20;75.05;101134.53;5124577;28;20186;-77
2021/06/20 02:23:31;;;;;;;10.47;6.30;;;;;;;21.22;74.95;101148.09;5106496;28;20175;-77
2021/06/20 02:25:57;;;;;;;10.77;5.83;;;;;;;21.07;74.89;101130.47;5123150;28;20177;-76
2021/06/20 02:28:22;;;;;;;18.87;5.93;;;;;;;21.11;74.90;101136.69;5123168;28;20246;-77
2021/06/20 02:30:48;;;;;;;21.83;7.30;;;;;;;21.15;74.75;101148.53;5089064;28;20177;-76
2021/06/20 02:33:14;;;;;;;8.40;5.70;;;;;;;21.02;74.85;101125.53;5123015;28;20163;-77
2021/06/20 02:35:39;;;;;;;7.23;6.10;;;;;;;21.07;74.68;101136.91;5105912;28;20213;-76
2021/06/20 02:38:05;;;;;;;8.10;6.70;;;;;;;20.95;75.11;101131.59;5105775;28;20171;-77
2021/06/20 02:40:30;;;;;;;7.50;6.80;;;;;;;20.91;75.05;101128.22;5105733;28;20166;-76
2021/06/20 02:42:56;;;;;;;6.90;6.20;;;;;;;20.99;75.15;101132.94;5124094;28;20164;-76
2021/06/20 02:45:22;;;;;;;9.87;6.30;;;;;;;20.94;75.19;101130.81;5122708;28;20192;-76
2021/06/20 02:47:47;;;;;;;8.03;5.93;;;;;;;20.92;74.90;101133.34;5105870;28;20163;-77
2021/06/20 02:50:15;;;;;;;9.33;6.10;;;;;;;20.96;74.93;101144.41;5105775;28;20169;-77
2021/06/20 02:52:41;;;;;;;8.57;6.70;;;;;;;21.03;74.91;101152.47;5105853;28;20167;-77
2021/06/20 02:55:07;;;;;;;10.50;5.93;;;;;;;20.97;74.91;101143.13;5105356;28;20206;-77
2021/06/20 02:57:32;;;;;;;9.00;6.30;;;;;;;20.96;74.88;101148.03;5105570;28;20254;-76
2021/06/20 03:00:01;;;;;;;9.30;7.10;;;;;;;20.95;74.83;101154.94;5122212;28;20169;-77
2021/06/20 03:02:26;;;;;;;9.37;7.40;;;;;;;21.00;74.72;101165.50;5122373;28;20151;-75
2021/06/20 03:04:52;;;;;;;9.77;7.37;;;;;;;20.97;74.81;101160.03;5123545;28;20179;-76
2021/06/20 03:07:18;;;;;;;9.13;7.70;;;;;;;20.92;75.16;101158.72;5122005;28;20184;-77
2021/06/20 03:09:43;;;;;;;13.73;7.87;;;;;;;20.91;75.46;101162.81;5122300;28;20185;-77
2021/06/20 03:12:10;;;;;;;11.03;7.87;;;;;;;20.87;75.67;101142.47;5122004;28;20174;-76
2021/06/20 03:14:35;;;;;;;9.03;7.30;;;;;;;20.95;75.80;101145.69;5121907;28;20294;-77
2021/06/20 03:17:04;;;;;;;12.17;8.60;;;;;;;21.05;75.62;101147.09;5104932;28;20573;-77
2021/06/20 03:19:30;;;;;;;11.87;8.17;;;;;;;21.12;75.80;101144.66;5122012;28;20180;-76
2021/06/20 03:22:01;;;;;;;14.17;9.47;;;;;;;21.14;75.85;101152.63;5121874;28;20174;-76
2021/06/20 03:24:28;;;;;;;10.00;8.03;;;;;;;21.07;76.03;101138.94;5105698;28;20199;-76
2021/06/20 03:26:53;;;;;;;9.63;8.50;;;;;;;21.17;75.99;101148.78;5095517;28;20182;-76
2021/06/20 03:29:19;;;;;;;12.17;7.37;;;;;;;21.26;75.79;101151.50;5091511;28;20167;-77
2021/06/20 03:31:44;;;;;;;13.53;7.83;;;;;;;21.31;75.54;101156.41;5108381;28;20175;-76
2021/06/20 03:34:10;;;;;;;12.17;7.63;;;;;;;21.37;75.87;101163.69;5109368;28;20202;-77
2021/06/20 03:36:36;;;;;;;8.57;7.07;;;;;;;21.44;75.88;101174.53;5091392;28;20183;-77
2021/06/20 03:39:01;;;;;;;9.40;7.27;;;;;;;21.50;76.18;101171.78;5108071;28;20161;-77
2021/06/20 03:41:27;;;;;;;11.47;7.13;;;;;;;21.62;75.76;101176.28;5091017;28;20182;-76
2021/06/20 03:43:53;;;;;;;11.27;7.60;;;;;;;21.69;75.74;101173.06;5074497;28;20660;-76
2021/06/20 03:46:18;;;;;;;9.30;6.20;;;;;;;21.74;75.69;101161.84;5108349;28;20167;-76
2021/06/20 03:48:44;;;;;;;7.83;6.43;;;;;;;21.86;75.32;101165.56;5091141;28;20168;-76
2021/06/20 03:51:09;;;;;;;8.33;5.17;;;;;;;21.90;75.10;101168.94;5074332;28;20183;-76
2021/06/20 03:53:35;;;;;;;10.90;6.70;;;;;;;21.86;75.03;101157.84;5090745;28;20212;-76
2021/06/20 03:56:01;;;;;;;9.17;6.27;;;;;;;21.84;74.69;101174.53;5090899;28;20205;-77
2021/06/20 03:58:26;;;;;;;9.27;6.00;;;;;;;21.91;74.63;101179.72;5090882;28;20212;-76
2021/06/20 04:00:52;;;;;;;11.47;6.37;;;;;;;21.87;74.52;101169.94;5107726;28;20162;-76
2021/06/20 04:03:17;;;;;;;10.43;5.97;;;;;;;21.88;74.19;101182.75;5107637;28;20174;-76
2021/06/20 04:05:43;;;;;;;11.10;6.67;;;;;;;21.97;74.72;101191.88;5074097;28;20175;-78
2021/06/20 04:08:08;;;;;;;7.60;5.93;;;;;;;22.04;75.26;101176.50;5108872;28;20177;-77
2021/06/20 04:10:34;;;;;;;11.07;6.90;;;;;;;21.97;74.68;101166.47;5074065;28;20171;-76
2021/06/20 04:13:00;;;;;;;8.43;5.80;;;;;;;22.05;74.84;101166.78;5090554;28;20171;-76
2021/06/20 04:15:26;;;;;;;9.30;6.90;;;;;;;22.15;74.54;101185.13;5090289;28;20231;-76
2021/06/20 04:17:51;;;;;;;8.53;6.80;;;;;;;22.13;74.39;101179.19;5090542;28;20177;-76
2021/06/20 04:20:17;;;;;;;10.13;6.50;;;;;;;22.10;74.16;101180.94;5090492;28;20171;-77
2021/06/20 04:22:43;;;;;;;14.53;6.87;;;;;;;22.27;74.63;101178.28;5073884;28;20219;-76
2021/06/20 04:25:11;;;;;;;11.77;6.93;;;;;;;22.32;74.33;101174.75;5108618;28;20166;-77
2021/06/20 04:27:37;;;;;;;11.83;7.30;;;;;;;22.38;74.29;101169.91;5074555;28;20187;-77
2021/06/20 04:30:03;;;;;;;9.73;7.03;;;;;;;22.12;73.44;101155.06;5090223;28;20186;-76
2021/06/20 04:32:29;;;;;;;13.17;7.10;;;;;;;21.99;73.72;101154.66;5090313;28;20186;-76
2021/06/20 04:34:54;;;;;;;10.67;7.10;;;;;;;21.96;73.29;101162.06;5107061;28;20194;-77
2021/06/20 04:37:20;;;;;;;9.50;7.33;;;;;;;21.87;73.55;101165.06;5107542;28;20171;-76
2021/06/20 04:39:45;;;;;;;7.73;6.93;;;;;;;21.90;73.86;101174.59;5089347;28;20190;-77
2021/06/20 04:42:11;;;;;;;8.00;7.20;;;;;;;21.86;73.94;101152.22;5106615;28;20657;-76
2021/06/20 04:44:43;;;;;;;9.20;7.70;;;;;;;21.94;73.78;101156.16;5090060;28;20178;-76
2021/06/20 04:47:09;;;;;;;13.27;8.70;;;;;;;21.96;74.04;101155.66;5106893;28;20592;-76
2021/06/20 04:49:35;;;;;;;10.63;8.23;;;;;;;21.90;74.11;101130.19;5106794;28;20185;-76
2021/06/20 04:52:00;;;;;;;10.97;8.20;;;;;;;22.04;74.16;101157.53;5073216;28;20171;-76
2021/06/20 04:54:26;;;;;;;10.97;8.13;;;;;;;21.99;74.56;101163.13;5089749;28;20226;-77
2021/06/20 04:56:51;;;;;;;10.40;9.03;;;;;;;22.00;75.46;101150.59;5089668;28;20183;-76
2021/06/20 04:59:17;;;;;;;15.47;8.67;;;;;;;22.20;75.43;101159.75;5089849;28;20186;-76
2021/06/20 05:01:42;;;;;;;11.30;8.57;;;;;;;22.23;75.27;101143.84;5107589;28;20186;-76
2021/06/20 05:04:09;;;;;;;12.20;9.07;;;;;;;22.27;74.75;101145.16;5089718;28;20163;-77
2021/06/20 05:06:34;;;;;;;12.77;8.37;;;;;;;22.22;74.10;101154.34;5106548;28;20563;-76
2021/06/20 05:09:00;;;;;;;12.33;9.60;;;;;;;22.28;74.38;101143.13;5089615;28;20163;-77
2021/06/20 05:11:25;;;;;;;12.33;9.20;;;;;;;22.31;74.45;101151.38;5107595;28;20182;-77
2021/06/20 05:13:51;;;;;;;12.93;9.20;;;;;;;22.30;74.09;101147.00;5089309;28;20173;-77
2021/06/20 05:16:16;;;;;;;14.33;9.37;;;;;;;22.45;74.50;101158.19;5106455;28;20539;-76
2021/06/20 05:18:42;;;;;;;10.80;9.67;;;;;;;22.52;74.85;101154.91;5106401;28;20182;-77
2021/06/20 05:21:07;;;;;;;10.90;9.67;;;;;;;22.59;74.50;101148.78;5106196;28;20165;-76
2021/06/20 05:23:33;;;;;;;11.50;9.67;;;;;;;22.74;74.87;101155.06;5089204;28;20171;-77
2021/06/20 05:25:58;;;;;;;14.97;10.43;;;;;;;22.75;74.79;101154.56;5106254;28;20162;-76
2021/06/20 05:28:24;;;;;;;12.47;10.10;;;;;;;22.82;75.43;101151.25;5105968;28;20186;-76
2021/06/20 05:30:49;;;;;;;10.40;9.30;;;;;;;22.75;74.39;101146.09;5105641;28;20167;-77
2021/06/20 05:33:19;;;;;;;11.83;10.00;;;;;;;22.87;75.17;101144.13;5089089;28;20640;-77
2021/06/20 05:35:45;;;;;;;12.20;9.60;;;;;;;23.02;75.34;101145.47;5105937;28;20209;-77
2021/06/20 05:38:11;;;;;;;14.07;9.83;;;;;;;23.21;74.17;101155.13;5089093;28;20546;-77
2021/06/20 05:40:37;;;;;;;11.33;9.03;;;;;;;23.30;74.48;101154.91;5105965;28;20193;-76
2021/06/20 05:43:02;;;;;;;12.90;9.70;;;;;;;23.25;73.79;101155.66;5089056;28;20179;-77
2021/06/20 05:45:28;;;;;;;10.30;9.27;;;;;;;23.33;73.28;101161.63;5088912;28;20185;-76
2021/06/20 05:47:53;;;;;;;10.40;8.73;;;;;;;23.34;73.18;101157.50;5088798;28;20243;-76
2021/06/20 05:50:19;;;;;;;9.30;8.30;;;;;;;23.34;72.58;101149.78;5088519;28;20227;-77
2021/06/20 05:52:45;;;;;;;10.33;8.70;;;;;;;23.42;73.46;101147.22;5105513;28;20632;-76
2021/06/20 05:55:11;;;;;;;10.00;7.97;;;;;;;23.56;72.85;101149.09;5105553;28;20570;-76
2021/06/20 05:57:36;;;;;;;11.10;7.90;;;;;;;23.67;72.24;101135.75;5071968;28;20254;-77
2021/06/20 06:00:04;;;;;;;9.13;7.60;;;;;;;23.75;72.25;101156.59;5088673;28;20175;-76
2021/06/20 06:02:30;;;;;;;10.40;7.53;;;;;;;23.75;72.53;101139.63;5105554;28;20195;-76
2021/06/20 06:04:55;;;;;;;7.27;6.47;;;;;;;23.83;72.01;101145.56;5105546;28;20182;-76
2021/06/20 06:07:21;;;;;;;8.53;7.50;;;;;;;23.81;71.99;101140.44;5088765;28;20182;-76
2021/06/20 06:09:46;;;;;;;7.57;6.50;;;;;;;24.02;72.11;101135.34;5105600;28;20185;-76
2021/06/20 06:12:12;;;;;;;7.17;6.47;;;;;;;24.23;71.61;101139.47;5071808;28;20187;-77
2021/06/20 06:14:38;;;;;;;9.33;7.17;;;;;;;24.41;71.10;101134.06;5105364;28;20237;-77
2021/06/20 06:17:03;;;;;;;9.73;6.93;;;;;;;24.36;70.55;101119.91;5105343;28;20174;-76
2021/06/20 06:19:29;;;;;;;12.43;7.10;;;;;;;24.40;69.76;101135.34;5088510;28;20577;-76
2021/06/20 06:21:54;;;;;;;7.77;6.97;;;;;;;24.42;69.99;101129.19;5105278;28;20197;-76
2021/06/20 06:25:37;;;;;;;7.73;6.33;;;;;;;24.48;69.90;101127.88;5140731;27;20529;-76
2021/06/20 06:28:03;;;;;;;6.90;6.23;;;;;;;24.47;69.21;101125.56;5123415;28;20201;-76
2021/06/20 06:30:28;;;;;;;6.87;6.20;;;;;;;24.55;69.28;101121.69;5124709;28;20159;-76
2021/06/20 06:32:54;;;;;;;7.23;6.63;;;;;;;24.71;68.08;101120.16;5106008;28;20186;-77
2021/06/20 06:35:19;;;;;;;8.50;7.23;;;;;;;24.83;68.82;101118.84;5106175;28;20314;-78
2021/06/20 06:37:45;;;;;;;7.60;6.87;;;;;;;24.89;68.74;101114.72;5089124;28;20169;-77
2021/06/20 06:41:02;;;;;;;9.60;7.53;;;;;;;24.85;68.20;101124.75;5140465;27;20525;-76
2021/06/20 06:43:28;;;;;;;6.53;5.93;;;;;;;24.73;68.52;101132.53;5122914;28;20181;-77
2021/06/20 06:45:53;;;;;;;7.10;5.17;;;;;;;24.74;67.67;101136.91;5106409;28;20178;-77
2021/06/20 06:49:47;;;;;;;6.03;5.43;;;;;;;25.22;67.68;101130.81;5140678;27;20521;-77
2021/06/20 06:52:13;;;;;;;6.07;5.47;;;;;;;25.73;67.42;101139.38;5106641;28;20174;-77
2021/06/20 06:54:38;;;;;;;6.07;5.47;;;;;;;26.04;66.05;101126.81;5124353;28;20158;-76
2021/06/20 06:57:04;;;;;;;7.30;5.70;;;;;;;26.35;65.46;101132.75;5106338;28;20162;-77
2021/06/20 06:59:30;;;;;;;8.83;6.17;;;;;;;26.73;65.27;101137.34;5123208;28;20173;-77
2021/06/20 07:01:56;;;;;;;8.33;5.30;;;;;;;27.06;63.82;101137.00;5124257;28;20245;-77
2021/06/20 07:04:22;;;;;;;5.13;4.37;;;;;;;27.19;61.00;101137.16;5106013;28;20169;-78
2021/06/20 07:06:47;;;;;;;6.13;4.73;;;;;;;27.19;61.78;101127.81;5122991;28;20178;-77
2021/06/20 07:09:13;;;;;;;5.13;4.63;;;;;;;27.33;62.08;101135.91;5105811;28;20279;-77
2021/06/20 07:11:38;;;;;;;5.63;4.73;;;;;;;27.38;60.66;101143.59;5105826;28;20171;-77
2021/06/20 07:14:04;;;;;;;5.20;4.70;;;;;;;27.22;60.06;101136.06;5122533;28;20170;-77
2021/06/20 07:16:29;;;;;;;5.27;4.73;;;;;;;27.02;59.85;101132.91;5105817;28;20175;-77
2021/06/20 07:18:55;;;;;;;5.27;4.73;;;;;;;26.89;60.66;101132.78;5105688;28;20538;-77
2021/06/20 07:21:21;;;;;;;4.90;4.50;;;;;;;26.88;61.25;101136.94;5088556;28;20190;-77
2021/06/20 07:23:47;;;;;;;6.20;5.03;;;;;;;26.81;60.50;101143.97;5105511;28;20177;-77
2021/06/20 07:26:12;;;;;;;5.67;5.07;;;;;;;26.78;62.00;101141.44;5122441;28;20174;-77
2021/06/20 07:28:38;;;;;;;6.13;5.53;;;;;;;26.80;62.68;101156.66;5105640;28;20322;-77
2021/06/20 07:31:04;;;;;;;6.47;5.40;;;;;;;26.78;62.89;101142.22;5105701;28;20188;-76
2021/06/20 07:33:30;;;;;;;6.40;5.20;;;;;;;26.88;61.66;101154.00;5088363;28;20163;-76
2021/06/20 07:35:57;;;;;;;6.10;5.50;;;;;;;26.91;61.66;101150.09;5105335;28;20194;-77
2021/06/20 07:38:23;;;;;;;7.83;4.60;;;;;;;26.89;61.12;101142.09;5105740;28;20174;-77
2021/06/20 07:40:49;;;;;;;5.87;5.10;;;;;;;27.05;62.38;101146.06;5122239;28;20633;-77
2021/06/20 07:43:14;;;;;;;5.43;4.40;;;;;;;27.15;60.07;101141.53;5088294;28;20167;-77
2021/06/20 07:45:40;;;;;;;4.87;4.47;;;;;;;27.26;60.46;101145.06;5122203;28;20609;-77
2021/06/20 07:48:11;;;;;;;4.68;4.07;;;;;;;27.37;59.58;101141.28;5121956;28;20234;-76
2021/06/20 07:52:30;;;;;;;8.17;4.30;;;;;;;27.65;57.98;101147.41;5140468;27;20522;-77
2021/06/20 07:54:55;;;;;;;6.20;3.70;;;;;;;27.83;57.77;101124.66;5122922;28;20173;-76
2021/06/20 07:57:21;;;;;;;3.87;3.47;;;;;;;28.04;57.21;101128.47;5089015;28;20186;-77
2021/06/20 07:59:48;;;;;;;4.60;3.70;;;;;;;28.20;55.09;101126.69;5089098;28;20162;-76
2021/06/20 08:02:13;;;;;;;4.22;3.35;;;;;;;28.30;55.12;101134.25;5106069;28;20167;-77
2021/06/20 08:04:39;;;;;;;4.47;3.40;;;;;;;28.38;55.47;101140.09;5089145;28;20180;-76
2021/06/20 08:07:05;;;;;;;5.68;3.20;;;;;;;28.28;53.37;101125.50;5122888;28;20235;-77
2021/06/20 08:09:31;;;;;;;4.95;3.28;;;;;;;28.36;54.42;101120.69;5106114;28;20198;-76
2021/06/20 08:11:56;;;;;;;3.95;3.50;;;;;;;28.37;53.91;101130.78;5122663;28;20197;-76
2021/06/20 08:14:22;;;;;;;5.25;3.55;;;;;;;28.34;54.93;101134.72;5105483;28;20189;-76
2021/06/20 08:16:48;;;;;;;3.70;3.40;;;;;;;28.30;55.75;101125.72;5105888;28;20171;-76
2021/06/20 08:19:14;;;;;;;5.43;3.90;;;;;;;28.18;54.87;101137.81;5105749;28;20162;-78
2021/06/20 08:21:40;;;;;;;4.73;3.43;;;;;;;28.04;54.97;101137.00;5105585;28;20649;-77
2021/06/20 08:24:06;;;;;;;5.60;3.83;;;;;;;27.93;56.21;101136.41;5122347;28;20159;-76
2021/06/20 08:26:31;;;;;;;5.77;3.83;;;;;;;27.71;55.28;101137.50;5105280;28;20175;-76
2021/06/20 08:28:57;;;;;;;6.00;3.47;;;;;;;27.64;56.53;101135.25;5122503;28;20182;-77
2021/06/20 08:31:23;;;;;;;4.70;3.47;;;;;;;27.65;57.42;101131.09;5105196;28;20190;-76
2021/06/20 08:33:48;;;;;;;4.83;3.50;;;;;;;27.62;56.74;101131.38;5088213;28;20190;-76
2021/06/20 08:36:14;;;;;;;3.90;3.47;;;;;;;27.66;56.69;101132.63;5105228;28;20174;-76
2021/06/20 08:38:43;;;;;;;3.93;3.30;;;;;;;27.74;57.68;101139.25;5123365;28;20162;-76
2021/06/20 08:41:10;;;;;;;4.30;3.00;;;;;;;27.71;55.53;101131.00;5122375;28;20576;-76
2021/06/20 08:43:35;;;;;;;2.90;2.60;;;;;;;27.78;55.93;101136.06;5105413;28;20160;-76
2021/06/20 08:46:03;;;;;;;3.60;2.67;;;;;;;27.83;56.17;101121.81;5105356;28;20166;-76
2021/06/20 08:48:29;;;;;;;5.40;3.43;;;;;;;27.87;55.90;101121.47;5105403;28;20159;-76
2021/06/20 08:50:55;;;;;;;3.90;3.07;;;;;;;27.86;55.53;101117.88;5104751;28;20719;-76
2021/06/20 08:53:20;;;;;;;4.40;2.80;;;;;;;27.81;53.63;101103.72;5122143;28;20174;-78
2021/06/20 08:55:46;;;;;;;4.57;2.90;;;;;;;27.85;53.84;101110.63;5105086;28;20182;-76
2021/06/20 08:58:23;;;;;;;5.60;2.90;;;;;;;27.98;54.46;101110.69;5105069;28;20179;-76
2021/06/20 09:00:49;;;;;;;4.30;2.60;;;;;;;28.06;53.04;101110.84;5121773;28;20167;-76
2021/06/20 09:03:15;;;;;;;3.07;2.40;;;;;;;28.15;52.50;101116.13;5111661;28;20163;-76
2021/06/20 09:05:41;;;;;;;4.17;2.20;;;;;;;28.35;52.50;101126.94;5074567;28;20186;-76
2021/06/20 09:08:26;;;;;;;2.87;2.23;;;;;;;28.47;51.49;101114.06;5108310;28;20164;-78
2021/06/20 09:10:51;;;;;;;3.17;2.27;;;;;;;28.60;50.75;101105.50;5091140;28;20256;-76
2021/06/20 09:13:17;;;;;;;2.53;2.00;;;;;;;28.94;50.67;101103.56;5074393;28;20179;-76
2021/06/20 09:15:42;;;;;;;4.95;1.95;;;;;;;29.28;50.23;101105.22;5108222;28;20232;-76
2021/06/20 09:18:10;;;;;;;2.17;1.70;;;;;;;29.67;49.20;101105.16;5108146;28;20160;-77
2021/06/20 09:20:45;;;;;;;1.83;1.70;;;;;;;30.17;48.15;101106.84;5090980;28;20159;-76
2021/06/20 09:23:12;;;;;;;2.38;1.60;;;;;;;30.72;46.91;101102.59;5090768;28;20162;-76
2021/06/20 09:25:39;;;;;;;2.90;1.50;;;;;;;31.18;45.86;101104.41;5107952;28;20183;-77
2021/06/20 09:28:05;;;;;;;2.92;1.63;;;;;;;31.34;44.61;101086.75;5107698;28;20182;-77
2021/06/20 09:30:31;;;;;;;1.85;1.30;;;;;;;31.23;42.18;101072.75;5090760;28;20222;-76
2021/06/20 09:33:01;;;;;;;3.90;1.48;;;;;;;31.30;42.61;101092.09;5090901;28;20179;-76
2021/06/20 09:35:55;;;;;;;2.53;1.25;;;;;;;31.09;43.82;101082.78;5107580;28;20175;-76
2021/06/20 09:38:21;;;;;;;3.03;1.50;;;;;;;30.90;43.28;101079.44;5107978;28;20163;-76
2021/06/20 09:40:47;;;;;;;3.53;1.40;;;;;;;30.70;44.10;101085.22;5107545;28;20626;-76
2021/06/20 09:43:17;;;;;;;1.92;1.40;;;;;;;30.62;44.52;101090.09;5090635;28;20168;-76
2021/06/20 09:45:44;;;;;;;2.20;1.65;;;;;;;30.72;44.77;101083.34;5107129;28;20175;-77
2021/06/20 09:48:27;;;;;;;2.00;1.48;;;;;;;31.24;44.07;101082.13;5108670;28;20171;-76
2021/06/20 09:50:53;;;;;;;2.78;1.50;;;;;;;31.69;44.79;101088.78;5107038;28;20280;-76
2021/06/20 09:53:47;;;;;;;3.47;1.50;;;;;;;32.34;41.94;101079.38;5090528;28;20227;-76
2021/06/20 09:56:29;;;;;;;1.98;1.30;;;;;;;32.64;42.12;101076.50;5123177;28;20205;-76
2021/06/20 09:59:06;;;;;;;1.70;1.60;;;;;;;32.77;41.60;101075.50;5073674;28;20187;-76
2021/06/20 10:01:32;;;;;;;1.95;1.60;;;;;;;32.97;41.08;101069.53;5091629;28;20171;-77
2021/06/20 10:03:58;;;;;;;1.50;1.30;;;;;;;32.97;41.37;101065.94;5090189;28;20169;-76
2021/06/20 10:06:23;;;;;;;1.65;1.52;;;;;;;33.11;42.68;101047.13;5090086;28;20179;-77
2021/06/20 10:08:49;;;;;;;2.92;1.55;;;;;;;33.34;41.88;101057.22;5090108;28;20194;-76
2021/06/20 10:11:15;;;;;;;4.18;1.20;;;;;;;33.60;39.64;101053.03;5106905;28;20260;-77
2021/06/20 10:13:41;;;;;;;2.85;1.30;;;;;;;33.69;40.79;101058.94;5089525;28;20209;-77
2021/06/20 10:16:17;;;;;;;2.90;1.40;;;;;;;33.54;40.94;101052.50;5089714;28;20248;-76
2021/06/20 10:19:04;;;;;;;3.13;1.50;;;;;;;33.45;41.01;101044.50;5106794;28;20155;-77
2021/06/20 10:21:34;;;;;;;1.95;1.40;;;;;;;33.39;40.59;101041.09;5106920;28;20644;-76
2021/06/20 10:24:26;;;;;;;2.75;1.60;;;;;;;33.28;41.29;101036.56;5107988;28;20193;-76
2021/06/20 10:26:51;;;;;;;2.03;1.42;;;;;;;34.01;40.57;101033.06;5122333;28;20202;-76
2021/06/20 10:29:38;;;;;;;2.67;1.30;;;;;;;35.58;36.89;101026.97;5106485;28;20167;-76
2021/06/20 10:32:17;;;;;;;2.47;1.05;;;;;;;37.34;33.12;101027.13;5107623;28;20199;-76
2021/06/20 10:34:59;;;;;;;1.98;1.10;;;;;;;39.44;30.06;101017.97;5073042;28;20171;-76
2021/06/20 10:37:33;;;;;;;1.67;0.93;;;;;;;41.67;26.41;101012.03;5106403;28;20179;-77
2021/06/20 10:40:00;;;;;;;1.25;0.90;;;;;;;42.73;25.51;101000.31;5089747;28;20171;-78
2021/06/20 10:42:39;;;;;;;1.63;0.90;;;;;;;43.03;25.73;100988.03;5089675;28;20166;-77
2021/06/20 10:45:08;;;;;;;1.80;1.00;;;;;;;44.64;24.75;100994.19;5106359;28;20540;-79
2021/06/20 10:47:39;;;;;;;1.60;0.90;;;;;;;46.24;22.45;100983.09;5106395;28;20179;-78
2021/06/20 10:50:07;;;;;;;2.70;0.95;;;;;;;48.00;21.05;100979.38;5105721;28;20637;-76
2021/06/20 10:52:32;;;;;;;1.42;1.00;;;;;;;49.35;18.87;100970.47;5089458;28;20197;-77
2021/06/20 10:55:15;;;;;;;2.80;1.00;;;;;;;51.11;16.52;100963.59;5106205;28;20163;-75
2021/06/20 10:57:48;;;;;;;1.58;0.98;;;;;;;52.00;15.89;100955.25;5073199;28;20181;-75
2021/06/20 11:00:24;;;;;;;1.95;1.00;;;;;;;52.82;14.43;100944.25;5107297;28;20186;-75
2021/06/20 11:02:50;;;;;;;1.48;1.10;;;;;;;54.05;14.90;100930.81;5106080;28;20201;-77
2021/06/20 11:05:23;;;;;;;3.40;1.30;;;;;;;55.53;12.54;100915.88;5088957;28;20167;-76
2021/06/20 11:08:15;;;;;;;1.10;1.10;;;;;;;55.88;13.47;100926.88;5089024;28;20187;-77
2021/06/20 11:10:41;;;;;;;1.52;1.42;;;;;;;56.12;12.94;100908.13;5090395;28;20222;-76
2021/06/20 11:13:07;;;;;;;3.05;1.60;;;;;;;56.93;12.96;100905.97;5088767;28;20177;-76
2021/06/20 11:15:32;;;;;;;2.00;1.80;;;;;;;56.28;11.93;100908.78;5089023;28;20296;-76
2021/06/20 11:18:05;;;;;;;2.75;1.40;;;;;;;52.20;13.14;100892.63;5088755;28;20189;-77
2021/06/20 11:20:31;;;;;;;1.73;1.00;;;;;;;51.08;15.88;100882.34;5105878;28;20197;-75
2021/06/20 11:22:57;;;;;;;1.70;1.20;;;;;;;52.53;15.39;100888.53;5088994;28;20181;-75
2021/06/20 11:25:24;;;;;;;1.08;1.00;;;;;;;53.45;14.46;100878.00;5088433;28;20178;-75
2021/06/20 11:27:49;;;;;;;2.70;1.08;;;;;;;52.61;15.11;100868.59;5072107;28;20615;-75
2021/06/20 11:30:19;;;;;;;1.17;1.00;;;;;;;51.58;14.38;100862.38;5088790;28;20170;-75
2021/06/20 11:32:44;;;;;;;1.30;1.20;;;;;;;51.66;15.17;100845.47;5088775;28;20178;-75